sensor_id;sensor_type;location;lat;lon;timestamp;pressure;altitude;pressure_sealevel;temperature;humidity
10167;BME280;62970;53.130;8.244;2023-02-17T07:26:03;101277.81;;;8.19;77.02
10167;BME280;62970;53.130;8.244;2023-02-17T07:28:37;101276.94;;;8.21;76.88
10167;BME280;62970;53.130;8.244;2023-02-17T07:31:09;101274.31;;;8.24;77.28
10167;BME280;62970;53.130;8.244;2023-02-17T07:33:42;101271.69;;;8.29;76.85
10167;BME280;62970;53.130;8.244;2023-02-17T07:36:16;101271.66;;;8.35;77.27
10167;BME280;62970;53.130;8.244;2023-02-17T07:38:51;101269.91;;;8.39;76.96
10167;BME280;62970;53.130;8.244;2023-02-17T07:41:25;101269.00;;;8.41;76.85
10167;BME280;62970;53.130;8.244;2023-02-17T07:43:59;101267.25;;;8.45;76.60
10167;BME280;62970;53.130;8.244;2023-02-17T07:46:29;101259.44;;;8.48;76.87
10167;BME280;62970;53.130;8.244;2023-02-17T07:48:59;101246.41;;;8.51;77.07
10167;BME280;62970;53.130;8.244;2023-02-17T07:51:29;101236.00;;;8.52;76.77
10167;BME280;62970;53.130;8.244;2023-02-17T07:54:00;101248.13;;;8.55;76.85
10167;BME280;62970;53.130;8.244;2023-02-17T07:56:38;101237.72;;;8.56;76.74
10167;BME280;62970;53.130;8.244;2023-02-17T07:59:08;101243.75;;;8.60;76.85
10167;BME280;62970;53.130;8.244;2023-02-17T08:01:40;101242.88;;;8.63;76.40
10167;BME280;62970;53.130;8.244;2023-02-17T08:04:10;101229.84;;;8.64;76.24
10167;BME280;62970;53.130;8.244;2023-02-17T08:06:40;101242.84;;;8.66;76.88
10167;BME280;62970;53.130;8.244;2023-02-17T08:09:12;101237.63;;;8.67;76.66
10167;BME280;62970;53.130;8.244;2023-02-17T08:12:01;101223.75;;;8.67;76.28
10167;BME280;62970;53.130;8.244;2023-02-17T08:14:44;101223.75;;;8.68;76.63
10167;BME280;62970;53.130;8.244;2023-02-17T08:17:14;101219.41;;;8.69;76.73
10167;BME280;62970;53.130;8.244;2023-02-17T08:19:44;101222.88;;;8.69;76.89
10167;BME280;62970;53.130;8.244;2023-02-17T08:22:14;101211.59;;;8.72;76.71
10167;BME280;62970;53.130;8.244;2023-02-17T08:24:46;101203.78;;;8.72;76.54
10167;BME280;62970;53.130;8.244;2023-02-17T08:27:19;101207.25;;;8.72;76.70
10167;BME280;62970;53.130;8.244;2023-02-17T08:29:51;101202.03;;;8.74;76.83
10167;BME280;62970;53.130;8.244;2023-02-17T08:32:21;101197.69;;;8.74;76.53
10167;BME280;62970;53.130;8.244;2023-02-17T08:34:54;101204.63;;;8.75;76.55
10167;BME280;62970;53.130;8.244;2023-02-17T08:37:24;101215.88;;;8.76;76.54
10167;BME280;62970;53.130;8.244;2023-02-17T08:39:59;101208.94;;;8.79;76.70
10167;BME280;62970;53.130;8.244;2023-02-17T08:42:31;101208.94;;;8.79;76.72
10167;BME280;62970;53.130;8.244;2023-02-17T08:45:01;101201.13;;;8.82;76.66
10167;BME280;62970;53.130;8.244;2023-02-17T08:47:31;101195.88;;;8.87;76.79
10167;BME280;62970;53.130;8.244;2023-02-17T08:50:13;101201.94;;;8.87;76.67
10167;BME280;62970;53.130;8.244;2023-02-17T08:55:21;101200.09;;;8.97;76.75
10167;BME280;62970;53.130;8.244;2023-02-17T08:57:53;101186.22;;;8.98;76.46
10167;BME280;62970;53.130;8.244;2023-02-17T09:00:25;101186.22;;;9.00;76.88
10167;BME280;62970;53.130;8.244;2023-02-17T09:02:54;101195.72;;;9.02;76.87
10167;BME280;62970;53.130;8.244;2023-02-17T09:05:24;101187.00;;;9.06;76.51
10167;BME280;62970;53.130;8.244;2023-02-17T09:07:57;101190.44;;;9.08;76.77
10167;BME280;62970;53.130;8.244;2023-02-17T09:10:27;101180.91;;;9.09;76.72
10167;BME280;62970;53.130;8.244;2023-02-17T09:18:17;101193.81;;;9.16;76.70
10167;BME280;62970;53.130;8.244;2023-02-17T09:28:45;101184.16;;;9.28;76.62
10167;BME280;62970;53.130;8.244;2023-02-17T09:31:18;101204.09;;;9.29;76.46
10167;BME280;62970;53.130;8.244;2023-02-17T09:33:57;101197.97;;;9.33;76.63
10167;BME280;62970;53.130;8.244;2023-02-17T09:36:30;101184.06;;;9.35;76.38
10167;BME280;62970;53.130;8.244;2023-02-17T09:44:04;101173.53;;;9.46;76.31
10167;BME280;62970;53.130;8.244;2023-02-17T09:46:37;101155.25;;;9.49;76.14
10167;BME280;62970;53.130;8.244;2023-02-17T09:49:34;101150.88;;;9.52;76.58
10167;BME280;62970;53.130;8.244;2023-02-17T09:52:15;101136.06;;;9.56;76.32
10167;BME280;62970;53.130;8.244;2023-02-17T09:54:58;101134.31;;;9.58;76.41
10167;BME280;62970;53.130;8.244;2023-02-17T09:57:34;101129.03;;;9.63;76.13
10167;BME280;62970;53.130;8.244;2023-02-17T10:00:11;101137.66;;;9.66;76.16
10167;BME280;62970;53.130;8.244;2023-02-17T10:02:48;101148.03;;;9.71;76.26
10167;BME280;62970;53.130;8.244;2023-02-17T10:05:32;101156.69;;;9.71;76.26
10167;BME280;62970;53.130;8.244;2023-02-17T10:08:07;101151.44;;;9.74;76.11
10167;BME280;62970;53.130;8.244;2023-02-17T10:10:51;101145.34;;;9.77;75.81
10167;BME280;62970;53.130;8.244;2023-02-17T10:13:27;101142.69;;;9.80;75.54
10167;BME280;62970;53.130;8.244;2023-02-17T10:16:04;101135.69;;;9.83;76.03
10167;BME280;62970;53.130;8.244;2023-02-17T10:18:40;101160.81;;;9.86;75.72
10167;BME280;62970;53.130;8.244;2023-02-17T10:21:18;101158.19;;;9.89;75.53
10167;BME280;62970;53.130;8.244;2023-02-17T10:23:49;101175.50;;;9.92;75.34
10167;BME280;62970;53.130;8.244;2023-02-17T10:26:35;101177.19;;;9.94;75.67
10167;BME280;62970;53.130;8.244;2023-02-17T10:29:23;101185.84;;;9.96;75.61
10167;BME280;62970;53.130;8.244;2023-02-17T10:32:13;101171.06;;;9.98;75.41
10167;BME280;62970;53.130;8.244;2023-02-17T10:35:06;101187.56;;;9.99;75.16
10167;BME280;62970;53.130;8.244;2023-02-17T10:37:47;101192.78;;;10.00;75.11
10167;BME280;62970;53.130;8.244;2023-02-17T10:40:24;101210.09;;;10.03;75.07
10167;BME280;62970;53.130;8.244;2023-02-17T10:43:01;101207.50;;;10.03;75.13
10167;BME280;62970;53.130;8.244;2023-02-17T10:45:35;101197.94;;;10.03;75.23
10167;BME280;62970;53.130;8.244;2023-02-17T10:48:11;101213.56;;;10.03;75.14
10167;BME280;62970;53.130;8.244;2023-02-17T10:54:52;101209.25;;;9.99;74.95
10167;BME280;62970;53.130;8.244;2023-02-17T10:58:02;101197.97;;;10.02;74.94
10167;BME280;62970;53.130;8.244;2023-02-17T11:00:38;101175.34;;;10.04;75.10
10167;BME280;62970;53.130;8.244;2023-02-17T11:03:19;101197.91;;;10.05;74.84
10167;BME280;62970;53.130;8.244;2023-02-17T11:05:54;101227.41;;;10.07;74.92
10167;BME280;62970;53.130;8.244;2023-02-17T11:08:31;101232.59;;;10.08;74.94
10167;BME280;62970;53.130;8.244;2023-02-17T11:11:12;101205.66;;;10.09;74.96
10167;BME280;62970;53.130;8.244;2023-02-17T11:14:43;101201.34;;;10.08;74.95
10167;BME280;62970;53.130;8.244;2023-02-17T11:17:19;101186.56;;;10.09;75.08
10167;BME280;62970;53.130;8.244;2023-02-17T11:19:59;101176.16;;;10.09;75.19
10167;BME280;62970;53.130;8.244;2023-02-17T11:22:42;101177.88;;;10.10;75.02
10167;BME280;62970;53.130;8.244;2023-02-17T11:25:24;101188.28;;;10.10;74.96
10167;BME280;62970;53.130;8.244;2023-02-17T11:27:59;101186.53;;;10.10;74.41
10167;BME280;62970;53.130;8.244;2023-02-17T11:30:33;101172.63;;;10.11;74.54
10167;BME280;62970;53.130;8.244;2023-02-17T11:33:13;101177.84;;;10.11;75.02
10167;BME280;62970;53.130;8.244;2023-02-17T11:35:49;101173.50;;;10.12;74.64
10167;BME280;62970;53.130;8.244;2023-02-17T11:38:42;101177.88;;;10.10;75.02
10167;BME280;62970;53.130;8.244;2023-02-17T11:44:00;101184.78;;;10.12;74.58
10167;BME280;62970;53.130;8.244;2023-02-17T11:46:35;101180.44;;;10.13;74.77
10167;BME280;62970;53.130;8.244;2023-02-17T11:50:04;101173.50;;;10.12;74.47
10167;BME280;62970;53.130;8.244;2023-02-17T11:55:49;101182.19;;;10.11;74.93
10167;BME280;62970;53.130;8.244;2023-02-17T11:58:32;101184.81;;;10.09;74.99
10167;BME280;62970;53.130;8.244;2023-02-17T12:01:33;101172.72;;;10.05;74.44
10167;BME280;62970;53.130;8.244;2023-02-17T12:04:26;101175.41;;;10.01;74.79
10167;BME280;62970;53.130;8.244;2023-02-17T12:07:20;101172.84;;;9.95;74.66
10167;BME280;62970;53.130;8.244;2023-02-17T13:38:29;101196.50;;;10.42;75.07
10167;BME280;62970;53.130;8.244;2023-02-17T13:41:04;101199.09;;;10.44;74.83
10167;BME280;62970;53.130;8.244;2023-02-17T13:43:43;101196.44;;;10.47;74.57
10167;BME280;62970;53.130;8.244;2023-02-17T13:46:19;101184.19;;;10.50;74.48
10167;BME280;62970;53.130;8.244;2023-02-17T13:49:00;101197.22;;;10.52;74.80
10167;BME280;62970;53.130;8.244;2023-02-17T13:51:35;101198.84;;;10.58;74.09
10167;BME280;62970;53.130;8.244;2023-02-17T13:54:13;101183.19;;;10.59;74.43
10167;BME280;62970;53.130;8.244;2023-02-17T13:56:50;101198.72;;;10.65;73.96
10167;BME280;62970;53.130;8.244;2023-02-17T13:59:26;101202.19;;;10.66;73.84
10167;BME280;62970;53.130;8.244;2023-02-17T14:01:57;101200.41;;;10.69;74.09
10167;BME280;62970;53.130;8.244;2023-02-17T14:04:30;101205.56;;;10.72;73.98
10167;BME280;62970;53.130;8.244;2023-02-17T14:07:03;101208.09;;;10.75;73.84
10167;BME280;62970;53.130;8.244;2023-02-17T14:09:39;101201.16;;;10.76;73.46
10167;BME280;62970;53.130;8.244;2023-02-17T14:12:21;101186.38;;;10.75;73.84
10167;BME280;62970;53.130;8.244;2023-02-17T14:14:56;101194.16;;;10.78;72.97
10167;BME280;62970;53.130;8.244;2023-02-17T14:17:30;101205.47;;;10.77;73.30
10167;BME280;62970;53.130;8.244;2023-02-17T14:20:01;101227.19;;;10.79;73.12
10167;BME280;62970;53.130;8.244;2023-02-17T14:22:34;101227.19;;;10.79;72.80
10167;BME280;62970;53.130;8.244;2023-02-17T14:25:14;101214.91;;;10.84;73.42
10167;BME280;62970;53.130;8.244;2023-02-17T14:27:57;101217.41;;;10.90;73.13
10167;BME280;62970;53.130;8.244;2023-02-17T14:30:34;101213.84;;;10.96;73.22
10167;BME280;62970;53.130;8.244;2023-02-17T14:33:15;101213.72;;;11.02;72.86
10167;BME280;62970;53.130;8.244;2023-02-17T14:35:54;101233.66;;;11.06;72.81
10167;BME280;62970;53.130;8.244;2023-02-17T14:38:26;101224.00;;;11.09;72.69
10167;BME280;62970;53.130;8.244;2023-02-17T14:41:01;101211.78;;;11.13;72.20
10167;BME280;62970;53.130;8.244;2023-02-17T14:43:35;101228.28;;;11.13;72.00
10167;BME280;62970;53.130;8.244;2023-02-17T14:46:06;101232.63;;;11.14;71.56
10167;BME280;62970;53.130;8.244;2023-02-17T14:48:36;101227.41;;;11.14;71.50
10167;BME280;62970;53.130;8.244;2023-02-17T14:51:15;101226.47;;;11.17;71.03
10167;BME280;62970;53.130;8.244;2023-02-17T14:59:00;101261.31;;;11.14;70.63
10167;BME280;62970;53.130;8.244;2023-02-17T15:01:30;101243.97;;;11.12;70.34
10167;BME280;62970;53.130;8.244;2023-02-17T15:04:00;101249.22;;;11.10;69.63
10167;BME280;62970;53.130;8.244;2023-02-17T15:06:38;101271.03;;;11.08;70.04
10167;BME280;62970;53.130;8.244;2023-02-17T15:09:11;101271.94;;;11.05;69.29
10167;BME280;62970;53.130;8.244;2023-02-17T15:11:44;101261.53;;;11.04;69.84
10167;BME280;62970;53.130;8.244;2023-02-17T15:14:19;101287.66;;;11.02;69.07
10167;BME280;62970;53.130;8.244;2023-02-17T15:16:49;101276.41;;;10.99;68.58
10167;BME280;62970;53.130;8.244;2023-02-17T15:19:19;101294.72;;;10.96;68.83
10167;BME280;62970;53.130;8.244;2023-02-17T15:21:51;101293.06;;;10.90;68.20
10167;BME280;62970;53.130;8.244;2023-02-17T15:24:24;101304.44;;;10.86;68.19
10167;BME280;62970;53.130;8.244;2023-02-17T15:26:56;101311.47;;;10.81;67.98
10167;BME280;62970;53.130;8.244;2023-02-17T15:29:31;101332.44;;;10.76;68.01
10167;BME280;62970;53.130;8.244;2023-02-17T15:32:09;101321.28;;;10.65;67.14
10167;BME280;62970;53.130;8.244;2023-02-17T15:34:41;101325.75;;;10.57;66.22
10167;BME280;62970;53.130;8.244;2023-02-17T15:37:12;101337.22;;;10.45;66.40
10167;BME280;62970;53.130;8.244;2023-02-17T15:39:42;101361.72;;;10.35;66.44
10167;BME280;62970;53.130;8.244;2023-02-17T15:42:13;101362.69;;;10.27;66.44
10167;BME280;62970;53.130;8.244;2023-02-17T15:44:50;101363.69;;;10.15;66.15
10167;BME280;62970;53.130;8.244;2023-02-17T15:47:22;101350.78;;;10.04;65.10
10167;BME280;62970;53.130;8.244;2023-02-17T15:49:54;101357.84;;;9.93;64.85
10167;BME280;62970;53.130;8.244;2023-02-17T15:52:25;101384.88;;;9.81;64.33
10167;BME280;62970;53.130;8.244;2023-02-17T15:57:30;101409.38;;;9.62;64.43
10167;BME280;62970;53.130;8.244;2023-02-17T16:00:09;101419.03;;;9.51;65.04
10167;BME280;62970;53.130;8.244;2023-02-17T16:02:45;101413.03;;;9.43;64.81
10167;BME280;62970;53.130;8.244;2023-02-17T16:05:18;101418.31;;;9.34;64.47
10167;BME280;62970;53.130;8.244;2023-02-17T16:07:50;101410.59;;;9.24;64.65
10167;BME280;62970;53.130;8.244;2023-02-17T16:10:24;101434.06;;;9.17;64.24
10167;BME280;62970;53.130;8.244;2023-02-17T16:23:19;101478.53;;;8.77;64.68
10167;BME280;62970;53.130;8.244;2023-02-17T16:28:24;101495.03;;;8.64;64.22
10167;BME280;62970;53.130;8.244;2023-02-17T16:30:54;101496.78;;;8.56;64.22
10167;BME280;62970;53.130;8.244;2023-02-17T16:33:25;101506.34;;;8.51;64.27
10167;BME280;62970;53.130;8.244;2023-02-17T16:36:03;101508.97;;;8.42;64.18
10167;BME280;62970;53.130;8.244;2023-02-17T16:38:36;101525.44;;;8.36;64.54
10167;BME280;62970;53.130;8.244;2023-02-17T16:41:05;101508.13;;;8.31;64.47
10167;BME280;62970;53.130;8.244;2023-02-17T16:49:10;101521.16;;;8.11;64.34
10167;BME280;62970;53.130;8.244;2023-02-17T16:59:33;101548.91;;;7.90;64.70
10167;BME280;62970;53.130;8.244;2023-02-17T17:02:02;101578.31;;;7.86;64.40
10167;BME280;62970;53.130;8.244;2023-02-17T17:04:34;101580.91;;;7.80;64.75
10167;BME280;62970;53.130;8.244;2023-02-17T17:07:03;101581.78;;;7.78;64.65
10167;BME280;62970;53.130;8.244;2023-02-17T17:09:33;101593.91;;;7.76;64.25
10167;BME280;62970;53.130;8.244;2023-02-17T17:12:03;101614.66;;;7.73;64.48
10167;BME280;62970;53.130;8.244;2023-02-17T17:24:59;101641.47;;;7.56;64.15
10167;BME280;62970;53.130;8.244;2023-02-17T17:27:28;101644.91;;;7.52;64.47
10167;BME280;62970;53.130;8.244;2023-02-17T17:30:11;101650.94;;;7.47;64.60
10167;BME280;62970;53.130;8.244;2023-02-17T17:52:01;101695.69;;;7.09;64.90
10167;BME280;62970;53.130;8.244;2023-02-17T17:54:31;101714.69;;;7.05;64.45
10167;BME280;62970;53.130;8.244;2023-02-17T17:57:01;101704.31;;;7.02;64.90
10167;BME280;62970;53.130;8.244;2023-02-17T17:59:31;101711.19;;;6.98;64.63
10167;BME280;62970;53.130;8.244;2023-02-17T18:02:03;101712.91;;;6.95;64.88
10167;BME280;62970;53.130;8.244;2023-02-17T18:12:44;101711.97;;;6.84;64.95
10167;BME280;62970;53.130;8.244;2023-02-17T18:15:15;101718.88;;;6.83;64.69
10167;BME280;62970;53.130;8.244;2023-02-17T18:17:47;101730.06;;;6.78;65.02
10167;BME280;62970;53.130;8.244;2023-02-17T18:52:04;101765.25;;;6.48;64.28
10167;BME280;62970;53.130;8.244;2023-02-17T18:54:34;101771.28;;;6.47;64.94
10167;BME280;62970;53.130;8.244;2023-02-17T18:57:11;101770.41;;;6.47;64.87
10167;BME280;62970;53.130;8.244;2023-02-17T19:05:02;101781.56;;;6.37;64.93
10167;BME280;62970;53.130;8.244;2023-02-17T19:07:35;101780.69;;;6.38;65.37
10167;BME280;62970;53.130;8.244;2023-02-17T19:10:08;101780.69;;;6.36;64.88
10167;BME280;62970;53.130;8.244;2023-02-17T19:20:35;101786.63;;;6.26;64.81
10167;BME280;62970;53.130;8.244;2023-02-17T19:38:40;101814.94;;;6.08;65.18
10167;BME280;62970;53.130;8.244;2023-02-17T19:48:56;101838.91;;;5.93;65.75
10167;BME280;62970;53.130;8.244;2023-02-17T20:01:49;101837.03;;;5.81;65.52
10167;BME280;62970;53.130;8.244;2023-02-17T20:04:20;101843.06;;;5.79;65.47
10167;BME280;62970;53.130;8.244;2023-02-17T20:12:01;101868.03;;;5.75;65.91
10167;BME280;62970;53.130;8.244;2023-02-17T20:22:19;101867.03;;;5.65;65.67
10167;BME280;62970;53.130;8.244;2023-02-17T20:24:49;101868.72;;;5.63;65.58
10167;BME280;62970;53.130;8.244;2023-02-17T20:27:19;101866.13;;;5.62;65.75
10167;BME280;62970;53.130;8.244;2023-02-17T20:29:48;101879.94;;;5.62;65.89
10167;BME280;62970;53.130;8.244;2023-02-17T20:32:18;101879.00;;;5.59;66.04
10167;BME280;62970;53.130;8.244;2023-02-17T20:34:48;101866.91;;;5.56;65.61
10167;BME280;62970;53.130;8.244;2023-02-17T20:37:22;101866.91;;;5.56;65.63
10167;BME280;62970;53.130;8.244;2023-02-17T20:39:52;101871.19;;;5.54;65.64
10167;BME280;62970;53.130;8.244;2023-02-17T20:42:21;101870.31;;;5.54;66.04
10167;BME280;62970;53.130;8.244;2023-02-17T20:44:51;101871.19;;;5.54;65.86
10167;BME280;62970;53.130;8.244;2023-02-17T20:47:22;101878.09;;;5.55;66.09
10167;BME280;62970;53.130;8.244;2023-02-17T20:49:52;101872.91;;;5.54;66.01
10167;BME280;62970;53.130;8.244;2023-02-17T20:52:25;101882.34;;;5.52;65.98
10167;BME280;62970;53.130;8.244;2023-02-17T20:54:58;101889.22;;;5.50;66.24
10167;BME280;62970;53.130;8.244;2023-02-17T20:57:29;101884.03;;;5.48;65.89
10167;BME280;62970;53.130;8.244;2023-02-17T21:00:00;101886.59;;;5.47;65.96
10167;BME280;62970;53.130;8.244;2023-02-17T21:02:32;101890.84;;;5.43;66.14
10167;BME280;62970;53.130;8.244;2023-02-17T21:05:05;101901.19;;;5.42;65.84
10167;BME280;62970;53.130;8.244;2023-02-17T21:07:40;101899.38;;;5.37;66.27
10167;BME280;62970;53.130;8.244;2023-02-17T21:10:18;101906.25;;;5.35;66.06
10167;BME280;62970;53.130;8.244;2023-02-17T21:12:50;101908.91;;;5.40;66.34
10167;BME280;62970;53.130;8.244;2023-02-17T21:15:20;101906.31;;;5.38;66.09
10167;BME280;62970;53.130;8.244;2023-02-17T21:17:50;101910.63;;;5.40;66.13
10167;BME280;62970;53.130;8.244;2023-02-17T21:20:21;101889.03;;;5.37;66.34
10167;BME280;62970;53.130;8.244;2023-02-17T21:22:55;101893.31;;;5.35;66.29
10167;BME280;62970;53.130;8.244;2023-02-17T21:25:27;101896.72;;;5.33;66.05
10167;BME280;62970;53.130;8.244;2023-02-17T21:27:59;101894.09;;;5.31;66.33
10167;BME280;62970;53.130;8.244;2023-02-17T21:30:30;101891.44;;;5.27;66.33
10167;BME280;62970;53.130;8.244;2023-02-17T21:33:00;101889.66;;;5.24;66.20
10167;BME280;62970;53.130;8.244;2023-02-17T21:35:30;101893.03;;;5.19;66.53
10167;BME280;62970;53.130;8.244;2023-02-17T21:38:03;101884.41;;;5.18;66.18
10167;BME280;62970;53.130;8.244;2023-02-17T21:40:35;101891.31;;;5.19;66.47
10167;BME280;62970;53.130;8.244;2023-02-17T21:43:05;101889.53;;;5.17;66.38
10167;BME280;62970;53.130;8.244;2023-02-17T21:45:47;101895.59;;;5.17;66.36
10167;BME280;62970;53.130;8.244;2023-02-17T21:48:19;101899.00;;;5.15;66.76
10167;BME280;62970;53.130;8.244;2023-02-17T21:50:51;101901.53;;;5.12;66.74
10167;BME280;62970;53.130;8.244;2023-02-17T21:53:24;101899.72;;;5.07;66.42
10167;BME280;62970;53.130;8.244;2023-02-17T21:55:54;101909.22;;;5.09;66.82
10167;BME280;62970;53.130;8.244;2023-02-17T21:58:23;101910.06;;;5.07;66.68
10167;BME280;62970;53.130;8.244;2023-02-17T22:00:54;101900.59;;;5.06;66.88
10167;BME280;62970;53.130;8.244;2023-02-17T22:03:23;101904.03;;;5.07;66.49
10167;BME280;62970;53.130;8.244;2023-02-17T22:05:56;101900.59;;;5.06;66.48
10167;BME280;62970;53.130;8.244;2023-02-17T22:08:29;101909.22;;;5.07;66.56
10167;BME280;62970;53.130;8.244;2023-02-17T22:10:59;101909.22;;;5.09;66.54
10167;BME280;62970;53.130;8.244;2023-02-17T22:13:30;101910.06;;;5.06;66.79
10167;BME280;62970;53.130;8.244;2023-02-17T22:16:03;101913.44;;;5.03;66.47
10167;BME280;62970;53.130;8.244;2023-02-17T22:18:32;101913.44;;;5.02;66.65
10167;BME280;62970;53.130;8.244;2023-02-17T22:21:06;101915.06;;;4.97;66.77
10167;BME280;62970;53.130;8.244;2023-02-17T22:23:41;101920.19;;;4.94;66.52
10167;BME280;62970;53.130;8.244;2023-02-17T22:26:14;101909.69;;;4.85;66.69
10167;BME280;62970;53.130;8.244;2023-02-17T22:28:44;101904.44;;;4.82;66.89
10167;BME280;62970;53.130;8.244;2023-02-17T22:31:17;101899.97;;;4.73;66.71
10167;BME280;62970;53.130;8.244;2023-02-17T22:33:48;101909.38;;;4.69;66.91
10167;BME280;62970;53.130;8.244;2023-02-17T22:36:20;101915.31;;;4.65;67.12
10167;BME280;62970;53.130;8.244;2023-02-17T22:38:53;101912.63;;;4.59;67.24
10167;BME280;62970;53.130;8.244;2023-02-17T22:41:27;101921.22;;;4.58;67.45
10167;BME280;62970;53.130;8.244;2023-02-17T22:43:58;101914.28;;;4.56;67.40
10167;BME280;62970;53.130;8.244;2023-02-17T22:46:29;101914.22;;;4.53;67.50
10167;BME280;62970;53.130;8.244;2023-02-17T22:48:59;101918.47;;;4.49;67.51
10167;BME280;62970;53.130;8.244;2023-02-17T22:51:34;101926.19;;;4.49;67.35
10167;BME280;62970;53.130;8.244;2023-02-17T22:54:08;101920.97;;;4.46;67.48
10167;BME280;62970;53.130;8.244;2023-02-17T22:56:38;101928.66;;;4.43;67.21
10167;BME280;62970;53.130;8.244;2023-02-17T22:59:08;101923.44;;;4.40;67.78
10167;BME280;62970;53.130;8.244;2023-02-17T23:01:37;101929.41;;;4.37;67.57
10167;BME280;62970;53.130;8.244;2023-02-17T23:04:06;101932.00;;;4.37;67.74
10167;BME280;62970;53.130;8.244;2023-02-17T23:06:37;101928.53;;;4.37;67.93
10167;BME280;62970;53.130;8.244;2023-02-17T23:09:14;101929.34;;;4.34;67.83
10167;BME280;62970;53.130;8.244;2023-02-17T23:11:46;101933.66;;;4.34;67.77
10167;BME280;62970;53.130;8.244;2023-02-17T23:14:23;101943.06;;;4.32;67.59
10167;BME280;62970;53.130;8.244;2023-02-17T23:16:56;101946.50;;;4.31;67.90
10167;BME280;62970;53.130;8.244;2023-02-17T23:19:27;101949.88;;;4.28;67.95
10167;BME280;62970;53.130;8.244;2023-02-17T23:22:01;101935.19;;;4.26;67.85
10167;BME280;62970;53.130;8.244;2023-02-17T23:24:33;101919.72;;;4.26;68.13
10167;BME280;62970;53.130;8.244;2023-02-17T23:27:05;101915.41;;;4.26;68.23
10167;BME280;62970;53.130;8.244;2023-02-17T23:29:34;101912.91;;;4.29;67.95
10167;BME280;62970;53.130;8.244;2023-02-17T23:32:04;101907.78;;;4.32;68.47
10167;BME280;62970;53.130;8.244;2023-02-17T23:34:36;101909.63;;;4.38;68.33
10167;BME280;62970;53.130;8.244;2023-02-17T23:37:07;101914.03;;;4.43;68.42
10167;BME280;62970;53.130;8.244;2023-02-17T23:39:38;101922.72;;;4.47;68.00
10167;BME280;62970;53.130;8.244;2023-02-17T23:42:08;101914.16;;;4.50;68.32
10167;BME280;62970;53.130;8.244;2023-02-17T23:44:38;101905.56;;;4.51;68.21
10167;BME280;62970;53.130;8.244;2023-02-17T23:47:07;101917.63;;;4.50;67.88
10167;BME280;62970;53.130;8.244;2023-02-17T23:49:36;101923.66;;;4.51;68.17
10167;BME280;62970;53.130;8.244;2023-02-17T23:52:06;101919.34;;;4.51;67.77
10167;BME280;62970;53.130;8.244;2023-02-17T23:54:38;101921.97;;;4.53;67.98
10167;BME280;62970;53.130;8.244;2023-02-17T23:57:09;101929.75;;;4.54;68.17
10167;BME280;62970;53.130;8.244;2023-02-17T23:59:39;101922.94;;;4.58;67.94
